Time;durP1;ratioP1;P1;durP2;ratioP2;P2;SDS_P1;SDS_P2;PMS_P1;PMS_P2;Temp;Humidity;BMP_temperature;BMP_pressure;BME280_temperature;BME280_humidity;BME280_pressure;Samples;Min_cycle;Max_cycle;Signal;HPM_P1;HPM_P2
2022/08/31 00:06:04;;;;;;;11.20;7.30;;;;;;;23.69;58.21;99189.55;25082;1315;3049538;-63
2022/08/31 00:08:33;;;;;;;12.60;7.50;;;;;;;23.74;57.97;99190.41;25071;1315;3026440;-65
2022/08/31 00:11:02;;;;;;;14.20;7.60;;;;;;;23.75;58.24;99190.33;25082;1315;3026964;-64
2022/08/31 00:13:32;;;;;;;16.70;7.30;;;;;;;23.75;58.29;99194.75;25094;1315;3050846;-62
2022/08/31 00:16:02;;;;;;;10.10;7.10;;;;;;;23.76;58.24;99191.93;25029;1315;3026728;-64
2022/08/31 00:18:31;;;;;;;12.80;6.90;;;;;;;23.79;58.17;99188.38;25041;1315;3026212;-68
2022/08/31 00:21:00;;;;;;;13.20;7.60;;;;;;;23.82;58.14;99187.34;25095;1315;3026268;-69
2022/08/31 00:23:30;;;;;;;10.80;7.20;;;;;;;23.82;58.05;99182.14;25062;1315;3026696;-67
2022/08/31 00:25:59;;;;;;;12.50;7.10;;;;;;;23.84;58.10;99180.27;25051;1313;3054968;-64
2022/08/31 00:28:28;;;;;;;12.80;7.30;;;;;;;23.84;58.06;99174.36;25102;1315;3026914;-66
2022/08/31 00:30:57;;;;;;;9.90;6.40;;;;;;;23.86;57.84;99182.60;25061;1315;3026527;-64
2022/08/31 00:33:26;;;;;;;9.90;6.70;;;;;;;23.88;57.68;99183.73;25138;1313;3051618;-66
2022/08/31 00:35:56;;;;;;;11.40;7.30;;;;;;;23.89;57.51;99188.05;25093;1315;3026105;-66
2022/08/31 00:38:25;;;;;;;11.70;7.10;;;;;;;23.91;57.23;99200.54;25087;1315;3026253;-66
2022/08/31 00:40:54;;;;;;;13.20;7.70;;;;;;;23.79;57.45;99234.13;25115;1315;3053223;-67
2022/08/31 00:43:40;;;;;;;15.90;8.40;;;;;;;23.67;58.32;99288.66;25066;1315;3026697;-65
2022/08/31 00:46:13;;;;;;;16.30;8.60;;;;;;;23.43;60.14;99287.22;25061;1313;3052748;-67
2022/08/31 00:48:53;;;;;;;26.10;8.30;;;;;;;23.48;59.70;99258.77;25083;1315;3050651;-63
2022/08/31 00:51:23;;;;;;;16.90;8.30;;;;;;;23.47;59.87;99264.02;25103;1315;3058905;-67
2022/08/31 00:53:52;;;;;;;15.90;8.90;;;;;;;23.39;60.27;99249.11;25116;1315;3026899;-65
2022/08/31 00:56:21;;;;;;;18.20;8.10;;;;;;;23.35;60.39;99236.70;25124;1315;3026431;-67
2022/08/31 00:58:50;;;;;;;15.50;8.20;;;;;;;23.28;60.76;99241.08;25142;1315;3056606;-65
2022/08/31 01:01:19;;;;;;;13.80;8.30;;;;;;;23.34;60.45;99242.34;25026;1315;3026484;-64
2022/08/31 01:03:48;;;;;;;19.30;8.80;;;;;;;23.37;61.64;99250.86;25068;1315;3055337;-66
2022/08/31 01:06:18;;;;;;;17.20;9.20;;;;;;;23.31;62.73;99242.02;25051;1315;3026852;-64
2022/08/31 01:08:47;;;;;;;14.90;6.20;;;;;;;23.26;63.22;99244.25;25054;1315;3026553;-68
2022/08/31 01:11:15;;;;;;;22.90;6.50;;;;;;;23.81;61.81;99236.98;25105;1316;3053031;-67
2022/08/31 01:13:45;;;;;;;13.10;6.30;;;;;;;24.01;60.15;99222.78;25121;1315;3026898;-66
2022/08/31 01:16:18;;;;;;;12.30;6.90;;;;;;;23.66;60.82;99213.40;25097;1315;3026199;-66
2022/08/31 01:18:47;;;;;;;17.50;7.20;;;;;;;23.18;62.94;99198.31;25164;1315;3027285;-66
2022/08/31 01:21:16;;;;;;;23.40;7.30;;;;;;;22.86;63.65;99185.73;25044;1315;3026825;-63
2022/08/31 01:23:45;;;;;;;13.70;7.30;;;;;;;22.77;64.38;99178.45;25087;1315;3051295;-66
2022/08/31 01:26:17;;;;;;;18.50;6.90;;;;;;;22.64;63.90;99181.58;25105;1314;3026133;-65
2022/08/31 01:28:46;;;;;;;20.00;7.10;;;;;;;22.42;64.79;99189.92;25131;1315;3056174;-66
2022/08/31 01:31:43;;;;;;;17.30;7.90;;;;;;;22.35;65.93;99186.27;25091;1315;3026834;-67
2022/08/31 01:34:13;;;;;;;19.00;9.00;;;;;;;22.34;66.70;99171.80;25151;1315;3053695;-63
2022/08/31 01:36:42;;;;;;;8.60;4.40;;;;;;;22.46;66.64;99162.70;25142;1315;3026380;-63
2022/08/31 01:39:11;;;;;;;13.10;5.80;;;;;;;22.92;66.41;99149.03;25031;1314;3026497;-63
2022/08/31 01:41:42;;;;;;;15.40;6.60;;;;;;;23.40;64.69;99140.86;25172;1315;3027533;-66
2022/08/31 01:44:13;;;;;;;14.70;7.70;;;;;;;23.45;63.86;99133.63;25162;1315;3027202;-64
2022/08/31 01:46:43;;;;;;;16.30;7.10;;;;;;;23.35;64.38;99133.23;25062;1315;3026486;-65
2022/08/31 01:49:12;;;;;;;19.20;8.10;;;;;;;23.19;64.68;99129.08;25129;1315;3026712;-66
2022/08/31 01:51:42;;;;;;;27.10;8.60;;;;;;;23.04;65.79;99133.72;25093;1314;3026835;-67
2022/08/31 01:54:11;;;;;;;16.90;9.10;;;;;;;22.97;66.55;99133.24;25071;1313;3026656;-64
2022/08/31 01:56:45;;;;;;;17.30;8.20;;;;;;;22.86;67.81;99137.52;25154;1315;3055721;-64
2022/08/31 01:59:18;;;;;;;13.70;6.20;;;;;;;22.75;69.56;99140.14;25009;1316;3051715;-64
2022/08/31 02:01:56;;;;;;;15.50;6.70;;;;;;;23.29;67.62;99139.89;25137;1313;3053531;-61
2022/08/31 02:04:27;;;;;;;16.20;7.60;;;;;;;23.72;66.27;99136.70;25038;1316;3026300;-65
2022/08/31 02:06:58;;;;;;;14.30;8.10;;;;;;;23.77;65.66;99140.65;25024;1317;3027098;-65
2022/08/31 02:09:28;;;;;;;16.90;8.30;;;;;;;23.62;66.52;99145.98;25076;1316;3028412;-62
2022/08/31 02:11:57;;;;;;;13.10;8.40;;;;;;;23.43;66.47;99149.84;25112;1318;3027869;-62
2022/08/31 02:14:26;;;;;;;14.80;8.30;;;;;;;23.30;66.68;99149.04;25065;1316;3026577;-65
2022/08/31 02:16:55;;;;;;;17.30;9.40;;;;;;;23.17;66.83;99143.73;25021;1317;3050884;-64
2022/08/31 02:19:25;;;;;;;23.00;10.00;;;;;;;23.06;67.43;99144.48;25000;1317;3027359;-62
2022/08/31 02:21:57;;;;;;;22.10;9.20;;;;;;;22.99;67.87;99148.08;25078;1315;3026717;-64
2022/08/31 02:24:26;;;;;;;12.00;5.30;;;;;;;22.95;67.76;99148.50;25001;1317;3028472;-61
2022/08/31 02:26:58;;;;;;;10.90;6.50;;;;;;;23.50;66.64;99146.27;25078;1317;3052028;-65
2022/08/31 02:29:28;;;;;;;14.80;7.60;;;;;;;24.04;64.77;99149.06;25067;1317;3026253;-67
2022/08/31 02:31:57;;;;;;;15.60;7.40;;;;;;;24.07;63.69;99152.85;25089;1316;3026587;-67
2022/08/31 02:34:26;;;;;;;16.00;8.20;;;;;;;23.94;64.57;99151.54;25111;1317;3051564;-65
2022/08/31 02:36:55;;;;;;;14.40;8.20;;;;;;;23.79;64.73;99154.20;25044;1317;3027420;-65
2022/08/31 02:39:25;;;;;;;16.10;8.30;;;;;;;23.54;64.44;99152.63;25047;1318;3026749;-65
2022/08/31 02:41:54;;;;;;;13.00;8.00;;;;;;;23.37;64.70;99153.02;25005;1316;3053141;-64
2022/08/31 02:44:24;;;;;;;16.90;8.70;;;;;;;23.18;65.96;99152.70;25087;1318;3026162;-65
2022/08/31 02:46:53;;;;;;;14.20;8.50;;;;;;;23.06;65.79;99155.73;25000;1318;3026900;-63
2022/08/31 02:49:43;;;;;;;20.30;8.40;;;;;;;22.95;67.63;99156.64;25013;1317;3052663;-65
2022/08/31 02:52:13;;;;;;;9.80;4.90;;;;;;;22.90;67.88;99156.79;25042;1317;3026800;-64
2022/08/31 02:54:42;;;;;;;13.40;6.60;;;;;;;23.44;66.97;99153.80;25066;1316;3026604;-67
2022/08/31 02:57:11;;;;;;;19.50;7.10;;;;;;;23.98;64.97;99155.75;25055;1318;3052070;-63
2022/08/31 02:59:40;;;;;;;15.60;7.30;;;;;;;24.07;64.30;99148.34;25061;1317;3026792;-63
2022/08/31 03:02:09;;;;;;;14.10;7.20;;;;;;;23.94;64.21;99149.20;25017;1318;3026488;-64
2022/08/31 03:04:39;;;;;;;15.00;7.40;;;;;;;23.71;64.37;99154.28;25024;1315;3026619;-66
2022/08/31 03:07:12;;;;;;;12.50;7.80;;;;;;;23.53;65.30;99151.84;25055;1315;3026669;-64
2022/08/31 03:09:40;;;;;;;13.80;8.40;;;;;;;23.39;65.68;99151.19;25098;1316;3026651;-63
2022/08/31 03:12:11;;;;;;;15.80;8.20;;;;;;;23.27;66.00;99154.67;25032;1315;3070955;-64
2022/08/31 03:14:41;;;;;;;14.80;9.30;;;;;;;23.14;66.73;99155.67;25067;1315;3026204;-67
2022/08/31 03:17:10;;;;;;;15.30;8.90;;;;;;;23.06;66.53;99152.15;25067;1315;3026730;-62
2022/08/31 03:19:41;;;;;;;14.90;8.30;;;;;;;22.99;66.92;99153.35;25018;1314;3070492;-62
2022/08/31 03:22:13;;;;;;;8.80;5.00;;;;;;;22.93;67.59;99151.37;25083;1315;3026490;-63
2022/08/31 03:24:45;;;;;;;10.70;6.40;;;;;;;23.51;66.60;99151.48;25123;1318;3050639;-64
2022/08/31 03:27:14;;;;;;;10.50;7.10;;;;;;;24.06;64.71;99149.37;25063;1315;3026981;-63
2022/08/31 03:29:43;;;;;;;13.40;7.70;;;;;;;24.08;64.18;99151.96;25063;1315;3026524;-65
2022/08/31 03:32:19;;;;;;;12.80;7.70;;;;;;;24.00;64.06;99150.16;25159;1315;3054595;-65
2022/08/31 03:34:56;;;;;;;14.20;7.80;;;;;;;23.86;64.24;99150.35;25119;1315;3026347;-65
2022/08/31 03:37:26;;;;;;;14.60;9.10;;;;;;;23.68;64.31;99153.27;25056;1315;3048984;-65
2022/08/31 03:39:58;;;;;;;12.30;8.50;;;;;;;23.56;64.50;99158.23;25113;1315;3026556;-64
2022/08/31 03:42:27;;;;;;;20.50;9.40;;;;;;;23.47;64.89;99161.61;25043;1315;3027393;-64
2022/08/31 03:44:57;;;;;;;16.50;9.00;;;;;;;23.39;64.94;99163.84;25047;1315;3026353;-65
2022/08/31 03:47:30;;;;;;;18.10;8.50;;;;;;;23.32;65.95;99167.08;25067;1315;3026991;-62
2022/08/31 03:49:59;;;;;;;16.60;9.40;;;;;;;23.24;66.18;99172.04;25046;1315;3026197;-64
2022/08/31 03:52:32;;;;;;;9.60;5.20;;;;;;;23.23;66.36;99174.86;25097;1318;3059050;-63
2022/08/31 03:55:11;;;;;;;14.70;7.20;;;;;;;23.83;65.01;99173.75;25076;1315;3051581;-64
2022/08/31 03:57:41;;;;;;;15.20;7.70;;;;;;;24.31;63.36;99173.39;25050;1315;3026418;-65
2022/08/31 04:00:10;;;;;;;12.20;7.70;;;;;;;24.40;63.06;99176.71;25055;1315;3029925;-65
2022/08/31 04:02:42;;;;;;;17.70;8.20;;;;;;;24.25;63.13;99175.92;25072;1315;3049372;-63
2022/08/31 04:05:32;;;;;;;16.20;9.10;;;;;;;23.99;64.16;99182.55;25088;1315;3053883;-65
2022/08/31 04:08:11;;;;;;;17.50;9.80;;;;;;;23.83;64.44;99184.65;25090;1315;3055074;-63
2022/08/31 04:10:48;;;;;;;19.50;9.60;;;;;;;23.56;65.40;99182.61;25118;1315;3068023;-63
2022/08/31 04:13:35;;;;;;;20.40;10.40;;;;;;;23.35;66.50;99187.58;25061;1315;3048950;-65
2022/08/31 04:16:18;;;;;;;15.40;10.60;;;;;;;23.17;67.27;99190.17;25101;1315;3054616;-66
2022/08/31 04:19:00;;;;;;;14.90;10.30;;;;;;;23.02;67.69;99193.20;25118;1315;3054162;-62
2022/08/31 04:21:30;;;;;;;11.40;6.20;;;;;;;22.97;68.43;99193.58;25024;1315;3026509;-64
2022/08/31 04:24:00;;;;;;;16.60;9.10;;;;;;;23.53;66.81;99194.48;25096;1315;3027182;-64
2022/08/31 04:26:33;;;;;;;14.20;9.50;;;;;;;24.05;65.19;99196.25;25053;1315;3026838;-64
2022/08/31 04:29:03;;;;;;;14.90;9.20;;;;;;;24.09;64.72;99198.70;25083;1315;3026406;-65
2022/08/31 04:31:33;;;;;;;19.90;9.70;;;;;;;24.04;64.67;99196.08;25124;1315;3027142;-62
2022/08/31 04:34:03;;;;;;;17.90;10.00;;;;;;;23.87;64.92;99194.20;25065;1315;3026478;-69
2022/08/31 04:36:33;;;;;;;19.50;10.30;;;;;;;23.67;65.73;99192.00;25148;1315;3026563;-66
2022/08/31 04:39:02;;;;;;;22.00;12.30;;;;;;;23.49;66.28;99190.59;25108;1315;3026394;-67
2022/08/31 04:41:32;;;;;;;17.10;11.20;;;;;;;23.35;67.17;99190.77;25091;1315;3050457;-65
2022/08/31 04:44:02;;;;;;;19.50;11.10;;;;;;;23.30;67.22;99189.07;25049;1315;3027236;-65
2022/08/31 04:46:34;;;;;;;21.50;10.90;;;;;;;23.23;67.44;99186.82;25116;1315;3026724;-63
2022/08/31 04:49:03;;;;;;;19.90;6.70;;;;;;;23.26;67.27;99189.73;25046;1316;3026776;-65
2022/08/31 04:51:34;;;;;;;19.50;9.10;;;;;;;23.91;66.28;99190.85;25111;1316;3030490;-66
2022/08/31 04:54:05;;;;;;;16.10;9.50;;;;;;;24.42;64.46;99190.20;25052;1315;3026722;-62
2022/08/31 04:56:41;;;;;;;16.90;10.70;;;;;;;24.47;64.22;99188.52;25084;1315;3026688;-63
2022/08/31 04:59:12;;;;;;;18.50;10.70;;;;;;;24.36;64.69;99193.55;25034;1315;3071127;-62
2022/08/31 05:01:50;;;;;;;20.00;11.90;;;;;;;24.19;65.11;99196.01;25058;1315;3051555;-62
2022/08/31 05:04:41;;;;;;;17.50;12.60;;;;;;;24.00;65.69;99197.64;25038;1316;3055181;-67
2022/08/31 05:07:10;;;;;;;20.70;11.40;;;;;;;23.91;65.79;99198.45;25062;1315;3026820;-70
2022/08/31 05:09:39;;;;;;;23.50;12.50;;;;;;;23.84;66.07;99197.23;25108;1315;3048633;-67
2022/08/31 05:12:09;;;;;;;21.90;12.60;;;;;;;23.77;66.54;99196.55;25055;1315;3026476;-71
2022/08/31 05:14:39;;;;;;;20.50;13.20;;;;;;;23.73;66.56;99194.86;25095;1315;3026715;-65
2022/08/31 05:17:16;;;;;;;15.90;7.80;;;;;;;23.76;66.45;99194.84;25119;1315;3058730;-63
2022/08/31 05:19:45;;;;;;;15.50;10.00;;;;;;;24.40;64.55;99193.65;25038;1315;3026528;-64
2022/08/31 05:22:16;;;;;;;17.90;10.70;;;;;;;24.94;62.80;99189.48;25087;1316;3053815;-65
2022/08/31 05:24:47;;;;;;;20.10;11.40;;;;;;;25.05;62.02;99194.05;25058;1315;3026465;-64
2022/08/31 05:27:16;;;;;;;24.60;11.90;;;;;;;24.99;61.83;99190.61;25046;1318;3026554;-67
2022/08/31 05:29:46;;;;;;;24.60;11.70;;;;;;;24.83;62.84;99197.41;25068;1315;3026813;-68
2022/08/31 05:32:44;;;;;;;21.30;12.10;;;;;;;24.72;63.08;99199.33;25056;1318;3054088;-70
2022/08/31 05:35:13;;;;;;;20.30;11.80;;;;;;;24.69;62.80;99194.88;25043;1315;3027645;-64
2022/08/31 05:37:43;;;;;;;20.30;11.00;;;;;;;24.67;62.22;99197.75;25090;1315;3027985;-66
2022/08/31 05:40:12;;;;;;;19.40;11.40;;;;;;;24.68;61.96;99204.09;25085;1315;3026478;-64
2022/08/31 05:42:41;;;;;;;16.60;11.30;;;;;;;24.68;61.84;99205.41;25073;1315;3026371;-68
2022/08/31 05:45:11;;;;;;;21.90;12.30;;;;;;;24.58;62.12;99204.61;25080;1315;3052445;-68
2022/08/31 05:47:41;;;;;;;17.10;12.00;;;;;;;24.58;62.12;99208.34;25060;1315;3027019;-66
2022/08/31 05:50:10;;;;;;;17.00;11.40;;;;;;;24.62;62.18;99216.22;25121;1315;3026049;-65
2022/08/31 05:52:40;;;;;;;19.40;12.60;;;;;;;24.64;62.71;99216.39;25086;1315;3051997;-68
2022/08/31 05:55:10;;;;;;;17.60;12.30;;;;;;;24.61;62.84;99219.45;25025;1315;3026489;-67
2022/08/31 05:57:40;;;;;;;22.90;12.00;;;;;;;24.53;63.00;99223.41;25092;1315;3069023;-65
2022/08/31 06:00:10;;;;;;;18.70;13.10;;;;;;;24.60;62.52;99221.73;25082;1315;3027888;-65
2022/08/31 06:02:45;;;;;;;18.60;12.80;;;;;;;24.46;63.19;99221.80;25065;1315;3051866;-66
2022/08/31 06:05:16;;;;;;;18.50;12.40;;;;;;;24.51;63.18;99222.43;25125;1312;3026926;-64
2022/08/31 06:07:48;;;;;;;20.70;12.80;;;;;;;24.53;62.90;99223.23;25118;1312;3026630;-62
2022/08/31 06:10:19;;;;;;;21.10;13.50;;;;;;;24.61;62.64;99222.84;25118;1313;3026841;-63
2022/08/31 06:12:48;;;;;;;17.60;13.10;;;;;;;24.66;62.32;99222.63;25068;1315;3026352;-62
2022/08/31 06:15:19;;;;;;;21.90;13.90;;;;;;;24.64;62.84;99223.70;25093;1315;3028403;-63
2022/08/31 06:17:47;;;;;;;24.90;13.00;;;;;;;24.72;62.76;99225.66;24310;1315;3038209;-68
2022/08/31 06:20:16;;;;;;;27.10;13.40;;;;;;;24.82;62.54;99226.34;25122;1316;3054118;-66
2022/08/31 06:22:46;;;;;;;22.20;12.90;;;;;;;24.92;62.04;99229.00;25117;1315;3026886;-65
2022/08/31 06:25:23;;;;;;;25.20;13.50;;;;;;;24.99;61.51;99236.13;25134;1315;3052688;-65
2022/08/31 06:27:53;;;;;;;22.10;14.50;;;;;;;25.00;61.09;99240.92;25084;1315;3026519;-65
2022/08/31 06:30:25;;;;;;;22.10;14.00;;;;;;;25.03;60.62;99241.90;25067;1315;3026812;-64
2022/08/31 06:32:55;;;;;;;19.10;13.10;;;;;;;25.03;60.25;99242.33;25088;1313;3026888;-63
2022/08/31 06:35:29;;;;;;;18.30;12.60;;;;;;;25.08;59.47;99243.58;25199;1312;3049505;-62
2022/08/31 06:38:24;;;;;;;20.80;12.50;;;;;;;25.13;59.36;99250.11;25061;1315;3052661;-64
2022/08/31 06:41:17;;;;;;;18.30;11.40;;;;;;;25.21;58.40;99249.05;25113;1312;3057396;-65
2022/08/31 06:44:10;;;;;;;21.80;12.60;;;;;;;25.32;57.81;99249.66;25135;1312;3059432;-64
2022/08/31 06:46:53;;;;;;;30.70;12.10;;;;;;;25.38;56.80;99246.34;25069;1312;3053084;-67
2022/08/31 06:49:25;;;;;;;22.30;11.50;;;;;;;25.45;56.48;99248.05;25109;1312;3026466;-65
2022/08/31 06:51:59;;;;;;;19.00;12.20;;;;;;;25.54;56.55;99244.23;25111;1312;3026784;-68
2022/08/31 06:54:28;;;;;;;16.30;11.70;;;;;;;25.54;56.72;99245.16;25087;1312;3070267;-64
2022/08/31 06:57:29;;;;;;;20.00;12.20;;;;;;;25.67;56.60;99241.95;24990;1312;3052062;-66
2022/08/31 07:00:02;;;;;;;22.70;11.50;;;;;;;25.62;56.57;99237.49;25096;1312;3026442;-69
2022/08/31 07:02:56;;;;;;;25.60;13.00;;;;;;;25.78;57.08;99235.40;25134;1312;3053272;-67
2022/08/31 07:05:25;;;;;;;21.20;14.30;;;;;;;25.91;56.72;99233.94;25071;1312;3029274;-67
2022/08/31 07:07:56;;;;;;;28.30;14.90;;;;;;;26.00;56.72;99238.20;25112;1312;3052041;-68
2022/08/31 07:10:28;;;;;;;19.50;12.60;;;;;;;25.98;57.07;99239.36;25085;1316;3026575;-68
2022/08/31 07:12:57;;;;;;;19.70;12.50;;;;;;;26.05;56.45;99235.19;25140;1312;3026777;-66
2022/08/31 07:15:27;;;;;;;18.10;12.20;;;;;;;26.13;55.73;99230.31;25090;1313;3055245;-69
2022/08/31 07:17:56;;;;;;;19.40;11.90;;;;;;;26.27;55.27;99227.84;25104;1312;3026818;-67
2022/08/31 07:20:25;;;;;;;24.90;12.30;;;;;;;26.40;55.09;99224.77;25061;1313;3026310;-67
2022/08/31 07:22:56;;;;;;;23.70;12.20;;;;;;;26.54;55.00;99225.27;25101;1312;3052351;-67
2022/08/31 07:25:38;;;;;;;20.80;13.60;;;;;;;26.72;54.30;99223.35;25182;1312;3055033;-69
2022/08/31 07:28:09;;;;;;;22.30;14.50;;;;;;;26.85;52.89;99224.83;25082;1312;3026509;-65
2022/08/31 07:30:40;;;;;;;28.60;15.80;;;;;;;26.92;52.37;99227.12;25115;1312;3026563;-67
2022/08/31 07:33:10;;;;;;;24.80;14.30;;;;;;;26.90;51.83;99220.36;25135;1312;3027023;-68
2022/08/31 07:35:43;;;;;;;28.00;14.90;;;;;;;26.95;51.69;99219.70;25111;1312;3054461;-66
2022/08/31 07:42:31;;;;;;;28.60;15.20;;;;;;;26.96;51.65;99220.48;31520;1318;3026296;-65
2022/08/31 07:45:04;;;;;;;29.20;19.00;;;;;;;27.11;51.08;99216.06;25010;1318;3051909;-69
2022/08/31 07:47:34;;;;;;;27.60;17.10;;;;;;;27.29;49.28;99217.80;25027;1322;3026406;-66
2022/08/31 07:50:04;;;;;;;27.50;17.90;;;;;;;27.21;49.83;99223.98;25041;1318;3026583;-71
2022/08/31 07:52:54;;;;;;;31.60;19.30;;;;;;;27.21;49.26;99224.27;24997;1318;3052555;-63
2022/08/31 07:55:46;;;;;;;32.00;16.70;;;;;;;27.24;49.41;99216.02;24386;1318;4545971;-67
2022/08/31 07:58:39;;;;;;;25.00;18.30;;;;;;;27.32;49.74;99211.15;25114;1318;3058504;-69
2022/08/31 08:01:08;;;;;;;30.40;18.00;;;;;;;27.36;49.31;99210.97;25094;1318;3026667;-65
2022/08/31 08:03:42;;;;;;;30.40;19.10;;;;;;;27.36;49.63;99212.26;25045;1318;3026623;-69
2022/08/31 08:06:30;;;;;;;46.70;23.60;;;;;;;27.40;51.98;99213.18;25275;1315;3056697;-67
2022/08/31 08:09:06;;;;;;;43.20;23.80;;;;;;;27.34;54.09;99214.11;25230;1315;3052678;-68
2022/08/31 08:12:03;;;;;;;49.20;25.50;;;;;;;27.27;54.62;99212.78;25201;1315;3053555;-67
2022/08/31 08:14:58;;;;;;;45.60;23.80;;;;;;;27.19;54.41;99209.48;25060;1315;3053396;-64
2022/08/31 08:17:36;;;;;;;48.40;25.20;;;;;;;27.10;55.11;99209.27;25094;1316;3069945;-64
2022/08/31 08:20:09;;;;;;;44.10;24.50;;;;;;;27.05;55.37;99203.28;25177;1316;3027002;-63
2022/08/31 08:22:38;;;;;;;50.30;24.90;;;;;;;27.12;55.45;99197.28;25092;1315;3026390;-67
2022/08/31 08:25:37;;;;;;;43.70;25.80;;;;;;;27.24;55.04;99190.67;25055;1315;3055016;-64
2022/08/31 08:28:29;;;;;;;38.70;23.90;;;;;;;27.22;54.56;99182.20;25085;1317;3057373;-66
2022/08/31 08:31:02;;;;;;;44.50;23.60;;;;;;;27.36;53.90;99180.77;25166;1315;3026298;-69
2022/08/31 08:33:34;;;;;;;36.30;22.10;;;;;;;27.53;52.95;99175.02;25068;1315;3052943;-67
2022/08/31 08:36:06;;;;;;;33.70;19.90;;;;;;;27.70;52.47;99172.15;25059;1315;3028168;-66
2022/08/31 08:38:38;;;;;;;35.60;16.10;;;;;;;27.86;51.00;99177.02;25057;1315;3027083;-67
2022/08/31 08:41:22;;;;;;;17.60;11.40;;;;;;;27.93;49.84;99173.82;25099;1314;3026982;-65
2022/08/31 08:43:52;;;;;;;;;;;;;;;28.07;48.42;99174.20;25066;1318;3052034;-67
2022/08/31 08:46:46;;;;;;;21.40;8.40;;;;;;;28.12;47.89;99171.65;25130;1315;3026622;-72
2022/08/31 08:49:20;;;;;;;11.40;7.30;;;;;;;28.25;46.47;99174.38;25179;1316;3056879;-65
2022/08/31 08:51:53;;;;;;;11.70;6.00;;;;;;;28.37;44.67;99171.73;25062;1318;3052429;-67
2022/08/31 08:54:30;;;;;;;12.60;7.00;;;;;;;28.47;43.44;99171.95;25062;1316;3030079;-66
2022/08/31 08:57:01;;;;;;;9.50;5.90;;;;;;;28.58;43.37;99171.94;24994;1317;3049249;-67
2022/08/31 08:59:30;;;;;;;12.60;5.00;;;;;;;28.75;42.97;99166.95;25015;1318;3026764;-64
2022/08/31 09:02:05;;;;;;;10.10;5.60;;;;;;;28.83;40.77;99165.97;25073;1316;3028545;-68
2022/08/31 09:04:46;;;;;;;8.80;5.40;;;;;;;28.95;39.53;99169.58;25178;1316;3050199;-65
2022/08/31 09:07:58;;;;;;;7.90;5.20;;;;;;;29.03;38.75;99167.02;25019;1318;3070861;-67
2022/08/31 09:10:37;;;;;;;9.40;5.50;;;;;;;29.11;39.22;99163.98;25117;1316;3051662;-67
2022/08/31 09:13:24;;;;;;;13.90;5.50;;;;;;;29.27;39.43;99159.20;25191;1316;3052876;-67
2022/08/31 09:16:08;;;;;;;13.80;6.70;;;;;;;29.39;40.40;99160.92;25154;1316;3055744;-68
2022/08/31 09:18:51;;;;;;;19.00;7.00;;;;;;;29.44;40.98;99160.53;25035;1318;3057052;-68
2022/08/31 09:21:28;;;;;;;12.10;7.10;;;;;;;29.52;40.69;99158.38;25112;1315;3050103;-69
2022/08/31 09:24:06;;;;;;;14.20;7.50;;;;;;;29.58;40.79;99152.02;25092;1315;3054071;-68
2022/08/31 09:27:17;;;;;;;13.00;7.40;;;;;;;29.79;39.96;99154.46;25051;1318;3053038;-62
2022/08/31 09:29:59;;;;;;;11.30;6.90;;;;;;;29.89;39.76;99150.57;25153;1315;3069338;-66
2022/08/31 09:32:30;;;;;;;16.50;7.90;;;;;;;29.88;39.17;99153.66;25083;1316;3051537;-66
2022/08/31 09:35:02;;;;;;;13.80;7.20;;;;;;;29.83;39.20;99153.66;25131;1315;3026767;-67
2022/08/31 09:37:39;;;;;;;16.00;7.70;;;;;;;30.06;38.68;99153.73;25072;1315;3026935;-65
2022/08/31 09:40:40;;;;;;;11.80;7.10;;;;;;;30.20;38.51;99149.45;25129;1315;3057234;-68
2022/08/31 09:43:23;;;;;;;11.50;7.20;;;;;;;30.30;38.20;99146.37;25039;1315;3054505;-68
2022/08/31 09:45:57;;;;;;;14.70;8.20;;;;;;;30.33;38.42;99143.56;25138;1315;3055556;-66
2022/08/31 09:48:47;;;;;;;;;;;;;;;30.34;38.13;99140.17;25175;1313;3051090;-67
2022/08/31 09:51:24;;;;;;;10.30;7.60;;;;;;;30.42;38.52;99138.02;25109;1315;3069665;-70
2022/08/31 09:57:17;;;;;;;18.60;9.10;;;;;;;30.48;37.93;99135.86;24952;1321;3052053;-67
2022/08/31 09:59:48;;;;;;;14.40;9.20;;;;;;;30.45;38.08;99133.77;25104;1317;3026453;-68
2022/08/31 10:02:20;;;;;;;15.70;10.20;;;;;;;30.56;38.44;99127.95;25116;1318;3026600;-68
2022/08/31 10:04:53;;;;;;;17.50;8.60;;;;;;;30.66;37.99;99127.52;25075;1315;3026734;-67
2022/08/31 10:07:43;;;;;;;15.30;7.80;;;;;;;30.74;38.33;99128.71;25206;1318;3026963;-63
2022/08/31 10:10:21;;;;;;;14.30;6.70;;;;;;;30.88;38.37;99122.27;25099;1315;3052857;-63
2022/08/31 10:12:54;;;;;;;12.20;7.00;;;;;;;31.04;38.03;99120.27;25095;1315;3071142;-68
2022/08/31 10:15:29;;;;;;;13.10;6.60;;;;;;;31.12;37.57;99117.26;25166;1315;3026245;-66
2022/08/31 10:18:02;;;;;;;12.10;6.80;;;;;;;31.21;36.99;99116.80;25184;1315;3051443;-67
2022/08/31 10:20:38;;;;;;;13.60;6.50;;;;;;;31.33;36.93;99114.48;25142;1315;3054274;-67
2022/08/31 10:23:19;;;;;;;12.50;6.50;;;;;;;31.45;36.71;99112.61;25043;1317;3055453;-66
2022/08/31 10:25:57;;;;;;;12.70;6.40;;;;;;;31.50;36.55;99108.43;25093;1315;3049705;-68
2022/08/31 10:28:35;;;;;;;12.80;5.70;;;;;;;31.50;36.27;99103.34;25220;1316;3055383;-68
2022/08/31 10:31:22;;;;;;;9.60;6.60;;;;;;;31.61;36.07;99103.17;25121;1315;3049865;-65
2022/08/31 10:37:34;;;;;;;12.20;7.20;;;;;;;31.66;36.07;99100.10;25044;1313;3049442;-63
2022/08/31 10:40:19;;;;;;;13.40;6.40;;;;;;;31.75;35.81;99102.45;25097;1315;3052368;-63
2022/08/31 10:42:58;;;;;;;13.00;6.70;;;;;;;31.82;35.60;99101.55;25070;1314;3055737;-64
2022/08/31 10:45:28;;;;;;;17.10;6.60;;;;;;;31.89;35.53;99097.35;25090;1315;3056137;-64
2022/08/31 10:47:58;;;;;;;15.50;6.70;;;;;;;31.98;35.26;99095.19;25062;1313;3027928;-66
2022/08/31 10:50:36;;;;;;;16.40;7.10;;;;;;;32.03;35.35;99092.48;25035;1314;3026391;-64
2022/08/31 10:53:12;;;;;;;15.00;6.50;;;;;;;32.03;35.09;99087.16;25079;1313;3053339;-63
2022/08/31 10:56:13;;;;;;;13.80;7.50;;;;;;;32.16;34.87;99086.02;25054;1313;3071542;-64
2022/08/31 10:59:14;;;;;;;12.00;7.50;;;;;;;32.23;34.76;99084.95;25109;1315;3052029;-64
2022/08/31 11:02:08;;;;;;;15.80;8.20;;;;;;;32.28;35.41;99083.30;25069;1313;3055229;-65
2022/08/31 11:05:28;;;;;;;15.40;8.10;;;;;;;32.08;35.33;99083.77;25086;1315;3055408;-69
2022/08/31 11:08:16;;;;;;;18.00;8.50;;;;;;;32.21;34.67;99074.68;24988;1313;3058583;-69
2022/08/31 11:14:42;;;;;;;17.00;8.70;;;;;;;32.53;34.46;99063.15;31668;1319;3026298;-67
2022/08/31 11:17:50;;;;;;;14.70;8.20;;;;;;;32.89;32.91;99057.80;24932;1322;3052466;-65
2022/08/31 11:20:38;;;;;;;16.40;8.30;;;;;;;33.00;31.47;99055.96;24988;1321;3052576;-63
2022/08/31 11:23:49;;;;;;;17.20;8.20;;;;;;;32.90;32.47;99053.73;24927;1322;3059254;-66
2022/08/31 11:26:16;;;;;;;17.20;8.20;;;;;;;32.79;32.41;99052.28;23852;1319;5113664;-66
2022/08/31 11:28:49;;;;;;;15.80;8.60;;;;;;;32.90;32.34;99052.26;25007;1321;3026979;-68
2022/08/31 11:31:26;;;;;;;;;;;;;;;33.04;32.52;99049.42;25005;1318;3055354;-69
2022/08/31 11:34:12;;;;;;;16.70;8.00;;;;;;;32.84;32.32;99044.84;25082;1317;3051776;-68
2022/08/31 11:36:52;;;;;;;27.10;8.10;;;;;;;32.85;31.46;99040.84;25052;1317;3056583;-67
2022/08/31 11:39:25;;;;;;;16.00;8.60;;;;;;;32.69;31.45;99040.68;25032;1318;3052115;-65
2022/08/31 11:41:54;;;;;;;22.30;8.70;;;;;;;32.85;31.85;99041.02;25010;1317;3026633;-66
2022/08/31 11:44:30;;;;;;;14.60;7.20;;;;;;;33.02;31.58;99042.11;24934;1318;3026833;-64
2022/08/31 11:47:05;;;;;;;11.70;6.40;;;;;;;32.91;30.49;99039.89;24972;1318;3054708;-70
2022/08/31 11:49:45;;;;;;;16.00;6.30;;;;;;;33.12;29.94;99038.98;25081;1316;3052286;-68
2022/08/31 11:52:23;;;;;;;16.30;7.40;;;;;;;32.96;30.15;99032.01;25104;1316;3060155;-63
2022/08/31 11:54:55;;;;;;;12.30;6.10;;;;;;;32.83;31.37;99029.98;25051;1318;3050204;-64
2022/08/31 11:57:28;;;;;;;21.60;7.00;;;;;;;32.78;31.20;99024.30;25052;1316;3026510;-65
2022/08/31 11:59:57;;;;;;;14.60;6.90;;;;;;;32.64;30.97;99024.18;25114;1316;3026570;-68
2022/08/31 12:02:26;;;;;;;12.60;6.40;;;;;;;32.57;30.74;99023.17;25163;1316;3026678;-64